createdAt,value
2022-11-16T00:02:11.960Z,9.88
2022-11-16T00:04:39.779Z,9.57
2022-11-16T00:07:07.728Z,9.57
2022-11-16T00:09:35.616Z,9.95
2022-11-16T00:12:06.992Z,9.65
2022-11-16T00:14:36.302Z,8.77
2022-11-16T00:17:04.219Z,9.48
2022-11-16T00:19:32.085Z,9.30
2022-11-16T00:22:03.062Z,8.55
2022-11-16T00:24:30.928Z,9.00
2022-11-16T00:26:58.657Z,8.88
2022-11-16T00:29:27.112Z,9.70
2022-11-16T00:31:58.517Z,9.25
2022-11-16T00:34:26.373Z,9.27
2022-11-16T00:36:54.117Z,10.25
2022-11-16T00:39:21.957Z,10.43
2022-11-16T00:41:49.698Z,11.98
2022-11-16T00:44:18.741Z,11.60
2022-11-16T00:46:46.714Z,13.00
2022-11-16T00:49:14.572Z,13.38
2022-11-16T00:51:42.455Z,11.80
2022-11-16T00:54:10.197Z,11.80
2022-11-16T00:56:38.233Z,12.20
2022-11-16T00:59:06.301Z,13.50
2022-11-16T01:01:34.404Z,12.75
2022-11-16T01:04:02.375Z,12.75
2022-11-16T01:06:30.148Z,13.48
2022-11-16T01:08:57.834Z,13.75
2022-11-16T01:11:40.891Z,13.70
2022-11-16T01:14:09.617Z,13.38
2022-11-16T01:16:37.582Z,12.98
2022-11-16T01:19:05.600Z,12.43
2022-11-16T01:21:33.957Z,12.25
2022-11-16T01:24:02.163Z,12.77
2022-11-16T01:26:30.259Z,12.27
2022-11-16T01:28:59.074Z,11.98
2022-11-16T01:31:26.872Z,13.18
2022-11-16T01:33:55.278Z,13.10
2022-11-16T01:36:23.214Z,11.60
2022-11-16T01:38:51.063Z,10.65
2022-11-16T01:41:22.309Z,11.02
2022-11-16T01:43:56.296Z,9.68
2022-11-16T01:46:25.151Z,9.35
2022-11-16T01:49:05.561Z,9.70
2022-11-16T01:51:37.429Z,8.32
2022-11-16T01:54:09.872Z,8.85
2022-11-16T01:56:39.913Z,8.43
2022-11-16T01:59:07.775Z,8.10
2022-11-16T02:01:35.570Z,7.85
2022-11-16T02:04:03.315Z,7.70
2022-11-16T02:06:44.980Z,8.32
2022-11-16T02:09:48.566Z,7.80
2022-11-16T02:15:25.487Z,7.70
2022-11-16T02:18:19.943Z,6.97
2022-11-16T02:21:18.813Z,7.72
2022-11-16T02:24:16.860Z,6.95
2022-11-16T02:27:00.228Z,7.07
2022-11-16T02:29:45.745Z,6.82
2022-11-16T02:32:33.112Z,6.50
2022-11-16T02:35:10.058Z,6.30
2022-11-16T02:37:44.600Z,6.85
2022-11-16T02:40:16.733Z,6.60
2022-11-16T02:42:50.930Z,6.78
2022-11-16T02:45:23.991Z,6.65
2022-11-16T02:47:55.274Z,6.80
2022-11-16T02:50:25.426Z,6.75
2022-11-16T02:52:53.258Z,6.85
2022-11-16T02:55:21.547Z,7.05
2022-11-16T02:57:54.685Z,6.45
2022-11-16T03:00:38.125Z,7.07
2022-11-16T03:03:26.765Z,7.25
2022-11-16T03:05:59.717Z,7.38
2022-11-16T03:11:19.398Z,6.78
2022-11-16T03:13:48.856Z,7.05
2022-11-16T03:16:23.403Z,6.35
2022-11-16T03:18:53.179Z,6.38
2022-11-16T03:21:39.769Z,7.20
2022-11-16T03:24:08.921Z,7.22
2022-11-16T03:26:56.075Z,7.30
2022-11-16T03:29:41.357Z,7.95
2022-11-16T03:32:39.722Z,7.07
2022-11-16T03:35:18.039Z,7.30
2022-11-16T03:37:48.504Z,6.43
2022-11-16T03:40:18.690Z,7.10
2022-11-16T03:42:49.706Z,6.53
2022-11-16T03:45:18.677Z,6.88
2022-11-16T03:47:46.954Z,6.95
2022-11-16T03:50:14.980Z,6.95
2022-11-16T03:52:46.339Z,6.65
2022-11-16T03:55:17.336Z,6.97
2022-11-16T03:57:45.102Z,7.40
2022-11-16T04:00:13.203Z,7.40
2022-11-16T04:02:40.920Z,6.65
2022-11-16T04:05:24.510Z,6.82
2022-11-16T04:08:07.612Z,6.97
2022-11-16T04:13:49.821Z,6.38
2022-11-16T04:16:33.064Z,6.82
2022-11-16T04:19:16.496Z,6.15
2022-11-16T04:22:10.289Z,6.95
2022-11-16T04:24:40.756Z,6.80
2022-11-16T04:27:26.872Z,6.82
2022-11-16T04:29:57.044Z,7.60
2022-11-16T04:32:40.321Z,7.35
2022-11-16T04:35:23.597Z,7.97
2022-11-16T04:37:53.418Z,8.45
2022-11-16T04:40:24.169Z,7.95
2022-11-16T04:42:56.207Z,8.50
2022-11-16T04:45:40.055Z,7.85
2022-11-16T04:48:08.146Z,7.63
2022-11-16T04:50:36.668Z,8.10
2022-11-16T04:53:04.831Z,7.85
2022-11-16T04:55:33.124Z,7.93
2022-11-16T04:58:03.300Z,8.20
2022-11-16T05:00:33.859Z,8.40
2022-11-16T05:03:06.355Z,8.00
2022-11-16T05:05:38.975Z,7.93
2022-11-16T05:08:09.386Z,8.15
2022-11-16T05:10:38.985Z,7.75
2022-11-16T05:13:09.863Z,7.88
2022-11-16T05:15:38.829Z,8.48
2022-11-16T05:18:07.984Z,9.20
2022-11-16T05:20:52.801Z,8.05
2022-11-16T05:23:36.761Z,8.77
2022-11-16T05:26:05.103Z,8.88
2022-11-16T05:28:33.559Z,8.52
2022-11-16T05:31:03.096Z,10.10
2022-11-16T05:33:34.406Z,9.30
2022-11-16T05:36:02.234Z,9.10
2022-11-16T05:38:30.878Z,9.68
2022-11-16T05:41:00.858Z,9.07
2022-11-16T05:43:29.951Z,10.07
2022-11-16T05:46:00.865Z,8.93
2022-11-16T05:48:31.330Z,10.27
2022-11-16T05:51:02.903Z,9.32
2022-11-16T05:53:32.071Z,9.95
2022-11-16T05:56:01.437Z,9.70
2022-11-16T05:58:31.566Z,9.35
2022-11-16T06:01:02.211Z,9.30
2022-11-16T06:03:32.042Z,8.35
2022-11-16T06:06:00.949Z,8.13
2022-11-16T06:08:31.784Z,8.05
2022-11-16T06:11:06.178Z,8.05
2022-11-16T06:13:34.468Z,7.05
2022-11-16T06:16:03.165Z,7.93
2022-11-16T06:18:32.163Z,7.28
2022-11-16T06:21:01.528Z,7.45
2022-11-16T06:23:30.024Z,7.40
2022-11-16T06:25:59.654Z,7.00
2022-11-16T06:28:27.876Z,7.53
2022-11-16T06:30:55.606Z,7.00
2022-11-16T06:33:23.547Z,6.88
2022-11-16T06:35:51.216Z,6.97
2022-11-16T06:38:19.171Z,7.05
2022-11-16T06:40:51.859Z,7.15
2022-11-16T06:43:20.055Z,6.47
2022-11-16T06:45:50.651Z,6.75
2022-11-16T06:48:19.062Z,7.05
2022-11-16T06:50:49.769Z,7.10
2022-11-16T06:56:03.719Z,6.88
2022-11-16T06:58:32.454Z,6.65
2022-11-16T07:01:09.510Z,6.88
2022-11-16T07:03:37.329Z,6.57
2022-11-16T07:06:13.540Z,6.07
2022-11-16T07:08:42.885Z,6.55
2022-11-16T07:11:11.344Z,6.65
2022-11-16T07:13:39.802Z,6.30
2022-11-16T07:16:09.710Z,6.40
2022-11-16T07:18:39.022Z,6.15
2022-11-16T07:21:08.198Z,6.65
2022-11-16T07:23:36.262Z,7.18
2022-11-16T07:26:05.606Z,6.85
2022-11-16T07:28:34.079Z,7.03
2022-11-16T07:31:04.361Z,6.65
2022-11-16T07:33:32.283Z,6.57
2022-11-16T07:36:04.514Z,7.78
2022-11-16T07:38:34.383Z,6.78
2022-11-16T07:41:06.027Z,6.68
2022-11-16T07:43:35.947Z,6.80
2022-11-16T07:46:44.711Z,7.57
2022-11-16T07:49:08.339Z,7.63
2022-11-16T07:51:41.676Z,6.78
2022-11-16T07:54:15.078Z,6.50
2022-11-16T07:56:45.015Z,6.97
2022-11-16T07:59:21.253Z,6.45
2022-11-16T08:01:49.179Z,7.43
2022-11-16T08:04:17.710Z,7.50
2022-11-16T08:06:47.170Z,6.57
2022-11-16T08:09:14.683Z,6.95
2022-11-16T08:11:42.259Z,6.65
2022-11-16T08:14:11.465Z,7.68
2022-11-16T08:16:39.199Z,6.95
2022-11-16T08:19:06.767Z,6.88
2022-11-16T08:21:34.613Z,6.72
2022-11-16T08:24:02.328Z,6.55
2022-11-16T08:26:30.462Z,6.13
2022-11-16T08:28:58.451Z,6.60
2022-11-16T08:31:31.555Z,6.28
2022-11-16T08:34:00.997Z,6.57
2022-11-16T08:36:29.506Z,6.65
2022-11-16T08:38:57.447Z,6.60
2022-11-16T08:41:26.832Z,6.90
2022-11-16T08:43:57.017Z,6.60
2022-11-16T08:46:25.441Z,5.35
2022-11-16T08:48:57.310Z,6.05
2022-11-16T08:51:27.670Z,5.63
2022-11-16T08:53:58.110Z,6.50
2022-11-16T08:56:28.511Z,5.60
2022-11-16T08:58:59.181Z,6.05
2022-11-16T09:01:32.936Z,6.90
2022-11-16T09:04:02.511Z,6.10
2022-11-16T09:06:32.348Z,5.90
2022-11-16T09:09:02.534Z,6.32
2022-11-16T09:11:31.742Z,6.30
2022-11-16T09:14:02.094Z,5.68
2022-11-16T09:16:33.221Z,6.03
2022-11-16T09:19:04.500Z,5.93
2022-11-16T09:21:35.087Z,5.63
2022-11-16T09:24:05.913Z,5.28
2022-11-16T09:26:34.035Z,5.18
2022-11-16T09:29:03.527Z,5.78
2022-11-16T09:31:34.886Z,5.07
2022-11-16T09:34:03.024Z,5.05
2022-11-16T09:36:31.444Z,4.88
2022-11-16T09:42:02.612Z,5.50
2022-11-16T09:44:57.632Z,4.82
2022-11-16T09:47:42.347Z,4.75
2022-11-16T09:50:24.439Z,5.00
2022-11-16T09:52:55.415Z,5.32
2022-11-16T09:55:41.685Z,5.25
2022-11-16T09:58:16.403Z,5.85
2022-11-16T10:00:50.053Z,6.13
2022-11-16T10:03:17.544Z,5.63
2022-11-16T10:06:04.054Z,4.60
2022-11-16T10:08:46.399Z,5.07
2022-11-16T10:11:31.609Z,5.75
2022-11-16T10:14:13.673Z,5.22
2022-11-16T10:17:03.613Z,5.20
2022-11-16T10:19:56.687Z,4.13
2022-11-16T10:22:42.064Z,4.10
2022-11-16T10:25:16.861Z,4.22
2022-11-16T10:28:07.622Z,3.90
2022-11-16T10:30:45.387Z,4.00
2022-11-16T10:33:18.916Z,4.28
2022-11-16T10:35:54.345Z,4.72
2022-11-16T10:38:31.268Z,4.88
2022-11-16T10:41:14.872Z,4.90
2022-11-16T10:43:45.435Z,4.80
2022-11-16T10:46:30.688Z,5.63
2022-11-16T10:49:21.008Z,5.70
2022-11-16T10:51:48.842Z,5.40
2022-11-16T10:54:18.237Z,5.45
2022-11-16T10:56:52.864Z,5.45
2022-11-16T10:59:20.969Z,5.18
2022-11-16T11:01:51.328Z,6.15
2022-11-16T11:04:26.377Z,5.93
2022-11-16T11:06:58.395Z,5.57
2022-11-16T11:09:36.057Z,5.60
2022-11-16T11:12:32.139Z,5.18
2022-11-16T11:15:06.683Z,5.75
2022-11-16T11:17:36.391Z,5.43
2022-11-16T11:20:18.589Z,5.03
2022-11-16T11:22:56.949Z,5.03
2022-11-16T11:25:29.764Z,5.45
2022-11-16T11:28:23.937Z,4.90
2022-11-16T11:31:12.649Z,5.43
2022-11-16T11:33:48.467Z,4.80
2022-11-16T11:36:34.610Z,5.30
2022-11-16T11:39:08.587Z,4.80
2022-11-16T11:41:40.643Z,4.88
2022-11-16T11:44:26.112Z,4.50
2022-11-16T11:47:55.771Z,4.65
2022-11-16T11:50:11.447Z,4.65
2022-11-16T11:52:47.436Z,4.80
2022-11-16T11:55:18.105Z,4.45
2022-11-16T11:57:49.382Z,4.47
2022-11-16T12:00:18.342Z,3.22
2022-11-16T12:03:15.725Z,3.78
2022-11-16T12:05:57.740Z,3.95
2022-11-16T12:08:54.145Z,4.28
2022-11-16T12:11:37.394Z,3.72
2022-11-16T12:17:09.004Z,3.70
2022-11-16T12:19:57.549Z,3.70
2022-11-16T12:22:48.809Z,3.88
2022-11-16T12:25:33.751Z,3.72
2022-11-16T12:28:27.023Z,3.55
2022-11-16T12:31:10.762Z,3.50
2022-11-16T12:33:56.329Z,3.80
2022-11-16T12:36:49.931Z,3.63
2022-11-16T12:39:34.023Z,3.72
2022-11-16T12:42:29.870Z,3.72
2022-11-16T12:45:20.948Z,3.90
2022-11-16T12:48:10.976Z,4.10
2022-11-16T12:51:00.610Z,4.03
2022-11-16T12:53:52.482Z,4.88
2022-11-16T12:56:35.144Z,4.15
2022-11-16T12:59:28.291Z,4.43
2022-11-16T13:02:23.866Z,4.38
2022-11-16T13:04:59.285Z,4.38
2022-11-16T13:07:37.777Z,4.55
2022-11-16T13:10:21.226Z,4.90
2022-11-16T13:13:21.857Z,4.43
2022-11-16T13:15:49.353Z,4.80
2022-11-16T13:18:23.799Z,4.47
2022-11-16T13:21:01.034Z,4.60
2022-11-16T13:23:56.308Z,4.50
2022-11-16T13:26:36.535Z,4.43
2022-11-16T13:29:36.907Z,4.13
2022-11-16T13:32:31.843Z,4.78
2022-11-16T13:35:04.420Z,4.47
2022-11-16T13:37:45.074Z,4.57
2022-11-16T13:40:24.678Z,4.80
2022-11-16T13:43:16.967Z,4.72
2022-11-16T13:45:57.515Z,4.53
2022-11-16T13:48:36.150Z,4.80
2022-11-16T13:51:08.692Z,4.35
2022-11-16T13:54:38.009Z,4.65
2022-11-16T13:56:49.119Z,5.22
2022-11-16T13:59:23.332Z,4.90
2022-11-16T14:02:02.006Z,4.97
2022-11-16T14:04:54.296Z,4.47
2022-11-16T14:07:43.124Z,5.15
2022-11-16T14:10:32.737Z,4.85
2022-11-16T14:13:04.495Z,4.43
2022-11-16T14:15:38.159Z,5.35
2022-11-16T14:18:33.100Z,4.82
2022-11-16T14:21:36.908Z,5.28
2022-11-16T14:24:24.090Z,4.97
2022-11-16T14:27:16.777Z,5.32
2022-11-16T14:30:26.239Z,5.75
2022-11-16T14:32:59.339Z,5.85
2022-11-16T14:35:40.020Z,4.97
2022-11-16T14:38:27.715Z,4.82
2022-11-16T14:41:00.117Z,5.22
2022-11-16T14:43:40.602Z,4.75
2022-11-16T14:46:37.883Z,4.80
2022-11-16T14:49:06.497Z,4.97
2022-11-16T14:51:38.085Z,4.75
2022-11-16T14:54:20.911Z,6.28
2022-11-16T14:57:05.190Z,5.57
2022-11-16T14:59:33.210Z,5.43
2022-11-16T15:02:14.920Z,5.28
2022-11-16T15:04:42.743Z,5.50
2022-11-16T15:07:13.169Z,5.28
2022-11-16T15:09:46.920Z,4.78
2022-11-16T15:12:33.580Z,5.30
2022-11-16T15:15:07.813Z,4.63
2022-11-16T15:17:36.321Z,5.00
2022-11-16T15:20:17.024Z,5.38
2022-11-16T15:22:47.479Z,5.13
2022-11-16T15:25:33.168Z,4.93
2022-11-16T15:28:03.682Z,4.78
2022-11-16T15:30:37.710Z,5.55
2022-11-16T15:33:11.471Z,5.15
2022-11-16T15:35:39.396Z,5.43
2022-11-16T15:38:15.241Z,5.47
2022-11-16T15:40:54.347Z,6.15
2022-11-16T15:43:26.452Z,5.72
2022-11-16T15:45:55.213Z,5.07
2022-11-16T15:48:24.909Z,5.78
2022-11-16T15:51:15.532Z,4.78
2022-11-16T15:53:45.817Z,5.47
2022-11-16T15:56:32.846Z,5.38
2022-11-16T15:59:10.081Z,5.82
2022-11-16T16:01:47.594Z,5.85
2022-11-16T16:04:17.610Z,5.38
2022-11-16T16:06:55.993Z,4.90
2022-11-16T16:09:31.065Z,5.80
2022-11-16T16:12:18.096Z,5.45
2022-11-16T16:14:48.707Z,6.60
2022-11-16T16:17:27.211Z,6.07
2022-11-16T16:20:01.618Z,5.47
2022-11-16T16:22:34.714Z,5.18
2022-11-16T16:25:04.554Z,5.22
2022-11-16T16:27:38.615Z,4.78
2022-11-16T16:30:07.528Z,5.35
2022-11-16T16:32:40.312Z,5.90
2022-11-16T16:35:16.389Z,5.50
2022-11-16T16:37:44.368Z,4.97
2022-11-16T16:40:12.195Z,5.57
2022-11-16T16:42:43.082Z,5.00
2022-11-16T16:45:20.004Z,5.25
2022-11-16T16:47:48.099Z,5.07
2022-11-16T16:50:16.311Z,5.95
2022-11-16T16:52:43.875Z,5.68
2022-11-16T16:55:13.484Z,5.93
2022-11-16T16:57:42.401Z,5.53
2022-11-16T17:00:14.402Z,5.43
2022-11-16T17:02:42.851Z,5.63
2022-11-16T17:05:11.479Z,5.72
2022-11-16T17:07:40.882Z,5.50
2022-11-16T17:10:09.727Z,5.88
2022-11-16T17:12:38.194Z,5.90
2022-11-16T17:15:06.333Z,7.38
2022-11-16T17:17:36.314Z,5.78
2022-11-16T17:20:06.580Z,6.65
2022-11-16T17:22:35.771Z,5.55
2022-11-16T17:25:03.911Z,5.65
2022-11-16T17:27:32.720Z,5.60
2022-11-16T17:30:00.596Z,6.03
2022-11-16T17:32:28.360Z,7.03
2022-11-16T17:34:56.162Z,5.95
2022-11-16T17:37:23.991Z,6.60
2022-11-16T17:39:51.747Z,6.32
2022-11-16T17:42:22.895Z,5.20
2022-11-16T17:44:50.715Z,5.45
2022-11-16T17:47:18.530Z,5.82
2022-11-16T17:49:47.015Z,6.57
2022-11-16T17:52:15.581Z,6.22
2022-11-16T17:54:44.038Z,5.90
2022-11-16T17:57:13.067Z,6.97
2022-11-16T17:59:41.698Z,9.35
2022-11-16T18:02:11.725Z,6.47
2022-11-16T18:04:45.617Z,5.70
2022-11-16T18:07:17.333Z,6.43
2022-11-16T18:09:46.167Z,6.40
2022-11-16T18:12:14.735Z,7.68
2022-11-16T18:15:06.461Z,7.75
2022-11-16T18:17:35.145Z,7.47
2022-11-16T18:20:05.160Z,7.70
2022-11-16T18:22:33.735Z,7.85
2022-11-16T18:25:02.355Z,7.65
2022-11-16T18:27:33.408Z,7.30
2022-11-16T18:30:01.715Z,8.38
2022-11-16T18:32:32.156Z,8.95
2022-11-16T18:35:02.106Z,8.65
2022-11-16T18:37:31.348Z,8.40
2022-11-16T18:39:59.211Z,9.30
2022-11-16T18:42:28.890Z,10.07
2022-11-16T18:44:58.101Z,10.25
2022-11-16T18:47:26.016Z,9.75
2022-11-16T18:49:53.921Z,10.52
2022-11-16T18:52:22.328Z,11.65
2022-11-16T18:54:52.156Z,12.07
2022-11-16T18:57:20.413Z,11.60
2022-11-16T18:59:49.319Z,12.20
2022-11-16T19:02:17.506Z,12.63
2022-11-16T19:04:46.434Z,12.95
2022-11-16T19:07:15.210Z,12.65
2022-11-16T19:09:44.218Z,12.43
2022-11-16T19:12:12.186Z,12.45
2022-11-16T19:14:40.111Z,11.77
2022-11-16T19:17:08.245Z,12.48
2022-11-16T19:19:35.950Z,12.40
2022-11-16T19:22:04.123Z,12.68
2022-11-16T19:24:32.781Z,12.35
2022-11-16T19:27:00.932Z,12.30
2022-11-16T19:29:28.508Z,12.48
2022-11-16T19:31:56.981Z,11.73
2022-11-16T19:34:27.811Z,12.50
2022-11-16T19:36:59.816Z,11.77
2022-11-16T19:39:27.947Z,11.82
2022-11-16T19:41:55.820Z,11.95
2022-11-16T19:44:23.730Z,11.10
2022-11-16T19:46:53.301Z,11.77
2022-11-16T19:49:22.123Z,10.60
2022-11-16T19:51:50.014Z,11.07
2022-11-16T19:54:18.071Z,16.48
2022-11-16T19:56:50.544Z,11.20
2022-11-16T19:59:21.562Z,12.05
2022-11-16T20:01:49.589Z,12.23
2022-11-16T20:04:17.102Z,11.32
2022-11-16T20:06:44.931Z,11.43
2022-11-16T20:09:13.301Z,11.23
2022-11-16T20:11:41.949Z,10.45
2022-11-16T20:14:14.250Z,10.60
2022-11-16T20:16:43.823Z,9.98
2022-11-16T20:19:16.004Z,9.68
2022-11-16T20:21:44.317Z,9.98
2022-11-16T20:24:14.075Z,11.43
2022-11-16T20:26:45.257Z,10.23
2022-11-16T20:29:14.608Z,11.48
2022-11-16T20:31:44.635Z,10.98
2022-11-16T20:34:14.375Z,11.43
2022-11-16T20:36:44.699Z,11.25
2022-11-16T20:39:14.555Z,10.45
2022-11-16T20:41:44.187Z,10.77
2022-11-16T20:44:16.704Z,14.38
2022-11-16T20:49:14.139Z,10.52
2022-11-16T20:51:42.623Z,10.10
2022-11-16T20:54:12.976Z,7.65
2022-11-16T20:56:41.260Z,6.60
2022-11-16T20:59:09.148Z,6.72
2022-11-16T21:01:37.727Z,6.65
2022-11-16T21:04:06.590Z,7.13
2022-11-16T21:06:34.689Z,8.02
2022-11-16T21:09:02.603Z,9.15
2022-11-16T21:11:52.325Z,8.57
2022-11-16T21:14:23.484Z,10.15
2022-11-16T21:16:51.313Z,9.50
2022-11-16T21:19:19.125Z,9.60
2022-11-16T21:21:46.953Z,9.05
2022-11-16T21:24:14.737Z,9.60
2022-11-16T21:26:42.293Z,8.90
2022-11-16T21:29:10.549Z,9.35
2022-11-16T21:31:38.698Z,9.57
2022-11-16T21:34:07.653Z,8.07
2022-11-16T21:36:36.490Z,9.45
2022-11-16T21:39:04.379Z,8.85
2022-11-16T21:41:32.425Z,9.13
2022-11-16T21:44:00.305Z,10.43
2022-11-16T21:46:28.272Z,8.95
2022-11-16T21:48:57.030Z,10.13
2022-11-16T21:51:27.363Z,10.40
2022-11-16T21:53:55.526Z,10.05
2022-11-16T21:56:25.102Z,11.27
2022-11-16T21:58:53.914Z,10.88
2022-11-16T22:01:22.542Z,9.00
2022-11-16T22:04:10.857Z,10.55
2022-11-16T22:06:54.275Z,9.77
2022-11-16T22:09:24.667Z,9.63
2022-11-16T22:11:52.742Z,9.02
2022-11-16T22:14:20.929Z,9.02
2022-11-16T22:16:48.744Z,9.43
2022-11-16T22:19:16.642Z,9.93
2022-11-16T22:21:44.428Z,9.80
2022-11-16T22:24:12.374Z,10.32
2022-11-16T22:26:41.191Z,8.63
2022-11-16T22:29:09.004Z,9.60
2022-11-16T22:31:36.783Z,9.90
2022-11-16T22:34:04.458Z,9.18
2022-11-16T22:36:32.232Z,9.20
2022-11-16T22:39:00.029Z,9.35
2022-11-16T22:41:27.934Z,9.15
2022-11-16T22:43:55.746Z,8.77
2022-11-16T22:46:23.503Z,8.82
2022-11-16T22:48:51.287Z,8.60
2022-11-16T22:51:22.180Z,8.65
2022-11-16T22:54:05.536Z,7.70
2022-11-16T22:56:33.911Z,8.70
2022-11-16T22:59:02.662Z,8.65
2022-11-16T23:01:30.523Z,8.93
2022-11-16T23:03:58.295Z,9.18
2022-11-16T23:06:26.098Z,8.57
2022-11-16T23:08:53.842Z,8.45
2022-11-16T23:11:39.593Z,8.32
2022-11-16T23:14:25.683Z,8.38
2022-11-16T23:16:59.204Z,8.48
2022-11-16T23:19:42.605Z,8.38
2022-11-16T23:22:30.425Z,8.88
2022-11-16T23:25:13.928Z,8.48
2022-11-16T23:27:49.733Z,7.60
2022-11-16T23:30:17.591Z,7.38
2022-11-16T23:32:45.481Z,7.47
2022-11-16T23:35:13.685Z,7.30
2022-11-16T23:37:54.673Z,7.32
2022-11-16T23:40:25.484Z,6.57
2022-11-16T23:43:11.414Z,7.13
2022-11-16T23:45:40.427Z,7.22
2022-11-16T23:48:09.582Z,6.75
2022-11-16T23:50:37.569Z,6.97
2022-11-16T23:53:05.773Z,6.72
2022-11-16T23:55:38.409Z,6.55
2022-11-16T23:58:07.186Z,6.13
